Time;durP1;ratioP1;P1;durP2;ratioP2;P2;SDS_P1;SDS_P2;PMS_P1;PMS_P2;Temp;Humidity;BMP_temperature;BMP_pressure;BME280_temperature;BME280_humidity;BME280_pressure;Samples;Min_cycle;Max_cycle;Signal;HPM_P1;HPM_P2
2022/10/23 00:01:28;;;;;;;8.43;7.50;;;11.30;99.90;;;;;;4936968;29;20168;-89
2022/10/23 00:03:59;;;;;;;9.23;7.23;;;11.40;99.90;;;;;;4936743;29;20156;-88
2022/10/23 00:06:26;;;;;;;10.40;7.37;;;11.40;99.90;;;;;;4935713;29;20195;-88
2022/10/23 00:08:52;;;;;;;7.57;6.47;;;11.40;99.90;;;;;;4936803;29;20536;-88
2022/10/23 00:11:24;;;;;;;6.83;6.13;;;11.30;99.90;;;;;;4936698;29;20175;-88
2022/10/23 00:13:52;;;;;;;7.00;6.30;;;11.40;99.90;;;;;;4935624;29;20270;-87
2022/10/23 00:16:18;;;;;;;9.83;6.80;;;11.40;99.90;;;;;;4936865;29;20376;-88
2022/10/23 00:18:44;;;;;;;8.23;6.73;;;11.30;99.90;;;;;;4936576;29;20314;-88
2022/10/23 00:21:12;;;;;;;7.00;6.30;;;11.40;99.90;;;;;;4919784;29;20184;-87
2022/10/23 00:23:39;;;;;;;7.97;7.17;;;11.50;99.90;;;;;;4936729;29;20175;-88
2022/10/23 00:26:07;;;;;;;7.27;6.53;;;11.40;99.90;;;;;;4920038;29;20183;-87
2022/10/23 00:28:33;;;;;;;9.13;6.73;;;11.40;99.90;;;;;;4938219;29;20168;-88
2022/10/23 00:31:02;;;;;;;9.83;6.57;;;11.40;99.90;;;;;;4945094;29;20176;-87
2022/10/23 00:33:28;;;;;;;9.13;7.03;;;11.40;99.90;;;;;;4952415;29;20176;-88
2022/10/23 00:35:54;;;;;;;7.43;6.40;;;11.40;99.90;;;;;;4920382;29;20180;-88
2022/10/23 00:38:19;;;;;;;9.17;6.40;;;11.40;99.90;;;;;;4936565;29;20255;-88
2022/10/23 00:40:45;;;;;;;11.17;6.90;;;11.30;99.90;;;;;;4936570;29;20191;-87
2022/10/23 00:43:21;;;;;;;7.83;6.73;;;11.30;99.90;;;;;;4919477;29;20227;-88
2022/10/23 00:45:47;;;;;;;8.40;6.50;;;11.30;99.90;;;;;;4936346;29;20207;-88
2022/10/23 00:48:13;;;;;;;7.10;6.40;;;11.30;99.90;;;;;;4918943;29;20646;-88
2022/10/23 00:50:40;;;;;;;8.53;6.67;;;11.20;99.90;;;;;;4919423;29;20180;-88
2022/10/23 00:53:08;;;;;;;7.33;6.57;;;11.30;99.90;;;;;;4924949;29;20186;-88
2022/10/23 00:55:37;;;;;;;7.43;6.73;;;11.20;99.90;;;;;;4959418;29;20207;-88
2022/10/23 00:58:03;;;;;;;7.13;6.43;;;11.10;99.90;;;;;;4937795;29;20240;-88
2022/10/23 01:00:40;;;;;;;6.83;5.97;;;11.10;99.90;;;;;;4937219;29;20266;-89
2022/10/23 01:03:06;;;;;;;6.40;5.80;;;11.00;99.90;;;;;;4936232;29;20289;-88
2022/10/23 01:05:45;;;;;;;7.30;6.57;;;11.00;99.90;;;;;;4938178;29;20183;-88
2022/10/23 01:08:30;;;;;;;7.60;6.03;;;10.90;99.90;;;;;;4940256;29;20783;-88
2022/10/23 01:11:07;;;;;;;6.90;6.20;;;10.90;99.90;;;;;;4919202;29;20643;-88
2022/10/23 01:13:53;;;;;;;7.03;6.33;;;10.90;99.90;;;;;;4935920;29;20200;-88
2022/10/23 01:16:30;;;;;;;6.20;5.70;;;10.90;99.90;;;;;;4936092;29;20163;-88
2022/10/23 01:18:59;;;;;;;6.63;6.03;;;10.90;99.90;;;;;;4919140;29;20251;-88
2022/10/23 01:21:44;;;;;;;6.40;5.80;;;11.00;99.90;;;;;;4935814;29;20258;-88
2022/10/23 01:24:43;;;;;;;7.50;6.70;;;11.00;99.90;;;;;;4918788;29;20176;-88
2022/10/23 01:27:22;;;;;;;6.87;6.00;;;10.90;99.90;;;;;;4935627;29;20632;-88
2022/10/23 01:29:58;;;;;;;6.90;6.30;;;10.90;99.90;;;;;;4918531;29;20167;-88
2022/10/23 01:32:31;;;;;;;7.13;6.43;;;10.90;99.90;;;;;;4935820;29;20166;-88
2022/10/23 01:35:12;;;;;;;7.90;6.37;;;10.90;99.90;;;;;;4935983;29;20182;-88
2022/10/23 01:37:48;;;;;;;7.10;6.40;;;11.00;99.90;;;;;;4935321;29;20262;-88
2022/10/23 01:40:23;;;;;;;7.33;6.10;;;10.90;99.90;;;;;;4918600;29;20587;-88
2022/10/23 01:42:54;;;;;;;6.37;5.70;;;10.90;99.90;;;;;;4935837;29;20171;-88
2022/10/23 01:45:35;;;;;;;6.43;5.90;;;10.90;99.90;;;;;;4950499;29;20203;-88
2022/10/23 01:48:04;;;;;;;6.70;6.10;;;10.90;99.90;;;;;;4958041;29;20152;-88
2022/10/23 01:50:31;;;;;;;6.40;5.80;;;10.90;99.90;;;;;;4935688;29;20345;-89
2022/10/23 01:52:56;;;;;;;7.07;6.30;;;11.00;99.90;;;;;;4936519;29;20186;-88
2022/10/23 01:55:24;;;;;;;6.63;6.03;;;11.00;99.90;;;;;;4936300;29;20180;-88
2022/10/23 01:57:52;;;;;;;6.53;5.90;;;11.00;99.90;;;;;;4936082;29;20259;-89
2022/10/23 02:00:19;;;;;;;10.33;5.77;;;11.00;99.90;;;;;;4919980;29;20588;-88
2022/10/23 02:02:46;;;;;;;6.20;5.60;;;11.10;99.90;;;;;;4921527;29;20176;-88
2022/10/23 02:05:20;;;;;;;7.27;5.53;;;11.00;99.90;;;;;;4922363;29;20195;-88
2022/10/23 02:07:46;;;;;;;8.13;5.83;;;11.00;99.90;;;;;;4940567;29;20191;-88
2022/10/23 02:10:13;;;;;;;6.70;5.33;;;11.00;99.90;;;;;;4940105;29;20186;-87
2022/10/23 02:12:59;;;;;;;6.33;5.80;;;11.10;99.90;;;;;;4921327;29;20183;-87
2022/10/23 02:15:36;;;;;;;6.57;5.97;;;11.00;99.90;;;;;;4938175;29;20168;-88
2022/10/23 02:18:02;;;;;;;6.80;5.33;;;11.00;99.90;;;;;;4920282;29;20225;-87
2022/10/23 02:20:44;;;;;;;6.67;5.60;;;10.90;99.90;;;;;;4935200;29;20215;-88
2022/10/23 02:23:19;;;;;;;6.83;5.63;;;10.90;99.90;;;;;;4933891;29;20244;-87
2022/10/23 02:25:57;;;;;;;9.53;5.37;;;10.90;99.90;;;;;;4935428;29;20184;-88
2022/10/23 02:28:27;;;;;;;6.20;5.20;;;10.90;99.90;;;;;;4935388;29;20243;-88
2022/10/23 02:30:59;;;;;;;6.10;5.53;;;10.80;99.90;;;;;;4939001;29;20534;-87
2022/10/23 02:33:27;;;;;;;6.33;5.73;;;10.80;99.90;;;;;;4937137;29;20198;-88
2022/10/23 02:35:53;;;;;;;6.70;6.10;;;10.80;99.90;;;;;;4937558;29;20182;-88
2022/10/23 02:38:29;;;;;;;6.50;5.90;;;10.80;99.90;;;;;;4937430;29;20187;-88
2022/10/23 02:41:05;;;;;;;7.57;5.30;;;10.70;99.90;;;;;;4937482;29;20599;-89
2022/10/23 02:43:37;;;;;;;8.23;5.33;;;10.80;99.90;;;;;;4940337;29;20175;-88
2022/10/23 02:46:24;;;;;;;5.93;5.43;;;10.80;99.90;;;;;;4959770;29;20651;-88
2022/10/23 02:49:02;;;;;;;6.43;5.80;;;10.80;99.90;;;;;;4961934;28;20243;-88
2022/10/23 02:51:56;;;;;;;7.90;6.00;;;10.80;99.90;;;;;;4939779;29;20164;-88
2022/10/23 02:54:40;;;;;;;6.30;5.70;;;10.90;99.90;;;;;;4909550;29;20219;-88
2022/10/23 02:57:38;;;;;;;6.10;5.50;;;10.90;99.90;;;;;;4938890;29;20640;-89
2022/10/23 03:00:12;;;;;;;6.83;5.57;;;10.90;99.90;;;;;;4935533;29;20224;-88
2022/10/23 03:02:45;;;;;;;5.90;5.37;;;10.80;99.90;;;;;;4937267;29;20261;-88
2022/10/23 03:05:17;;;;;;;5.37;4.97;;;10.80;99.90;;;;;;4938268;29;20536;-88
2022/10/23 03:07:43;;;;;;;5.80;5.30;;;10.70;99.90;;;;;;4938775;29;20586;-89
2022/10/23 03:10:09;;;;;;;5.80;4.70;;;10.70;99.90;;;;;;4936976;29;20297;-88
2022/10/23 03:12:36;;;;;;;5.33;4.83;;;10.80;99.90;;;;;;4936530;29;20183;-87
2022/10/23 03:15:02;;;;;;;5.63;5.17;;;10.80;99.90;;;;;;4937685;29;20646;-88
2022/10/23 03:17:27;;;;;;;5.70;5.10;;;10.70;99.90;;;;;;4936074;29;20675;-88
2022/10/23 03:19:53;;;;;;;5.77;5.27;;;10.70;99.90;;;;;;4937627;29;20241;-88
2022/10/23 03:22:19;;;;;;;5.97;5.47;;;10.70;99.90;;;;;;4937544;29;20183;-87
2022/10/23 03:24:45;;;;;;;5.37;4.90;;;10.60;99.90;;;;;;4937830;29;20183;-87
2022/10/23 03:27:10;;;;;;;5.20;4.80;;;10.60;99.90;;;;;;4937779;29;20179;-88
2022/10/23 03:29:36;;;;;;;6.10;5.50;;;10.60;99.90;;;;;;4937866;29;20678;-87
2022/10/23 03:32:03;;;;;;;5.37;4.97;;;10.60;99.90;;;;;;4937989;29;20199;-88
2022/10/23 03:34:29;;;;;;;5.43;5.00;;;10.50;99.90;;;;;;4939118;29;20190;-88
2022/10/23 03:36:55;;;;;;;5.07;4.57;;;10.50;99.90;;;;;;4921820;29;20190;-87
2022/10/23 03:39:21;;;;;;;5.53;4.80;;;10.50;99.90;;;;;;4939186;29;20211;-88
2022/10/23 03:41:47;;;;;;;6.20;4.90;;;10.40;99.90;;;;;;4939556;29;20233;-88
2022/10/23 03:44:12;;;;;;;8.40;5.10;;;10.40;99.90;;;;;;4950317;29;20228;-88
2022/10/23 03:46:39;;;;;;;5.10;4.70;;;10.30;99.90;;;;;;4941891;29;20180;-87
2022/10/23 03:49:05;;;;;;;6.87;6.17;;;10.30;99.90;;;;;;4922588;29;20194;-87
2022/10/23 03:51:31;;;;;;;6.37;5.87;;;10.40;99.90;;;;;;4904891;29;20180;-87
2022/10/23 03:53:57;;;;;;;5.67;5.17;;;10.50;99.90;;;;;;4919363;29;20219;-88
2022/10/23 03:56:22;;;;;;;6.23;4.80;;;10.40;99.90;;;;;;4901511;29;20190;-87
2022/10/23 03:58:48;;;;;;;5.03;4.63;;;10.40;99.90;;;;;;4901054;29;20251;-87
2022/10/23 04:01:14;;;;;;;4.40;4.10;;;10.30;99.90;;;;;;4918052;29;20186;-87
2022/10/23 04:03:40;;;;;;;4.53;3.97;;;10.10;99.90;;;;;;4900968;29;20259;-87
2022/10/23 04:06:06;;;;;;;4.57;4.13;;;10.00;99.90;;;;;;4900805;29;20198;-87
2022/10/23 04:08:32;;;;;;;4.50;3.97;;;9.90;99.90;;;;;;4917900;29;20182;-87
2022/10/23 04:10:57;;;;;;;4.17;3.83;;;9.80;99.90;;;;;;4918117;29;20178;-88
2022/10/23 04:13:24;;;;;;;4.17;3.87;;;9.70;99.90;;;;;;4917944;29;20499;-88
2022/10/23 04:15:51;;;;;;;3.67;3.43;;;9.60;99.90;;;;;;4918079;29;20199;-88
2022/10/23 04:18:17;;;;;;;3.60;3.40;;;9.60;99.90;;;;;;4900632;29;20237;-88
2022/10/23 04:20:46;;;;;;;2.90;2.70;;;9.50;99.90;;;;;;4923718;29;20595;-87
2022/10/23 04:23:12;;;;;;;2.80;2.70;;;9.40;99.90;;;;;;4939045;29;20189;-87
2022/10/23 04:25:37;;;;;;;2.30;2.20;;;9.40;99.90;;;;;;4922964;29;20182;-88
2022/10/23 04:28:03;;;;;;;2.40;2.30;;;9.40;99.90;;;;;;4901875;29;20176;-88
2022/10/23 04:30:29;;;;;;;2.83;2.73;;;9.40;99.90;;;;;;4918417;29;20243;-88
2022/10/23 04:32:54;;;;;;;2.27;2.17;;;9.40;99.90;;;;;;4901288;29;20679;-89
2022/10/23 04:35:20;;;;;;;2.40;2.30;;;9.40;99.90;;;;;;4918765;29;20183;-88
2022/10/23 04:37:46;;;;;;;2.30;2.20;;;9.30;99.90;;;;;;4934012;29;20197;-89
2022/10/23 04:40:12;;;;;;;2.13;2.03;;;9.30;99.90;;;;;;4922163;29;20217;-87
2022/10/23 04:42:37;;;;;;;2.30;2.10;;;9.30;99.90;;;;;;4903537;29;20181;-87
2022/10/23 04:45:04;;;;;;;2.23;2.13;;;9.30;99.90;;;;;;4903334;29;20227;-89
2022/10/23 04:47:30;;;;;;;2.10;2.10;;;9.30;99.90;;;;;;4923517;29;20189;-88
2022/10/23 04:49:56;;;;;;;2.00;1.90;;;9.30;99.90;;;;;;4917727;29;20172;-89
2022/10/23 04:52:22;;;;;;;2.07;2.00;;;9.30;99.90;;;;;;4900418;29;20210;-89
2022/10/23 04:54:47;;;;;;;2.90;1.90;;;9.20;99.90;;;;;;4900449;29;20180;-87
2022/10/23 04:57:13;;;;;;;2.00;1.90;;;9.30;99.90;;;;;;4916925;29;20168;-87
2022/10/23 04:59:39;;;;;;;2.20;2.10;;;9.30;99.90;;;;;;4917282;29;20200;-88
2022/10/23 05:02:04;;;;;;;5.17;4.03;;;9.30;99.90;;;;;;4900442;29;20181;-89
2022/10/23 05:04:30;;;;;;;3.40;3.10;;;9.20;99.90;;;;;;4916953;29;20263;-88
2022/10/23 05:06:56;;;;;;;6.67;5.03;;;9.20;99.90;;;;;;4900127;29;20236;-89
2022/10/23 05:09:22;;;;;;;4.93;4.33;;;9.10;99.90;;;;;;4917356;29;20538;-89
2022/10/23 05:11:48;;;;;;;5.67;4.67;;;9.10;99.90;;;;;;4914200;29;20200;-87
2022/10/23 05:14:14;;;;;;;5.63;4.97;;;9.20;99.90;;;;;;4936274;29;20179;-89
2022/10/23 05:16:53;;;;;;;5.83;4.83;;;9.20;99.90;;;;;;4937690;29;20175;-89
2022/10/23 05:19:22;;;;;;;3.27;2.97;;;9.20;99.90;;;;;;4916560;29;20245;-88
2022/10/23 05:21:54;;;;;;;3.40;3.10;;;9.20;99.90;;;;;;4936590;29;20176;-88
2022/10/23 05:24:21;;;;;;;3.30;3.10;;;9.20;99.90;;;;;;4947301;29;20183;-87
2022/10/23 05:26:50;;;;;;;3.57;3.37;;;9.20;99.90;;;;;;4916307;29;20350;-88
2022/10/23 05:29:16;;;;;;;3.10;2.90;;;9.30;99.90;;;;;;4916958;29;20180;-88
2022/10/23 05:31:43;;;;;;;3.40;3.20;;;9.30;99.90;;;;;;4918666;29;20178;-88
2022/10/23 05:34:13;;;;;;;6.53;3.50;;;9.40;99.90;;;;;;4918473;29;20865;-88
2022/10/23 05:36:39;;;;;;;3.07;2.83;;;9.40;99.90;;;;;;4917378;29;20177;-88
2022/10/23 05:39:05;;;;;;;3.77;3.53;;;9.40;99.90;;;;;;4915207;29;20231;-88
2022/10/23 05:41:30;;;;;;;3.40;3.20;;;9.50;99.90;;;;;;4916833;29;20259;-88
2022/10/23 05:43:56;;;;;;;3.23;3.13;;;9.40;99.90;;;;;;4915293;29;20192;-87
2022/10/23 05:46:22;;;;;;;3.37;3.17;;;9.50;99.90;;;;;;4918049;29;20173;-87
2022/10/23 05:48:51;;;;;;;3.90;3.60;;;9.50;99.90;;;;;;4917271;29;20795;-88
2022/10/23 05:51:21;;;;;;;3.23;3.03;;;9.40;99.90;;;;;;4916882;29;20184;-88
2022/10/23 05:53:48;;;;;;;5.20;3.00;;;9.40;99.90;;;;;;4916740;29;20178;-88
2022/10/23 05:56:14;;;;;;;3.20;3.00;;;9.50;99.90;;;;;;4915349;29;20371;-87
2022/10/23 05:58:40;;;;;;;3.10;2.90;;;9.50;99.90;;;;;;4915143;29;20268;-87
2022/10/23 06:01:07;;;;;;;3.37;3.17;;;9.50;99.90;;;;;;4916448;29;20187;-88
2022/10/23 06:03:34;;;;;;;3.60;3.30;;;9.50;99.90;;;;;;4915133;29;20220;-87
2022/10/23 06:06:00;;;;;;;3.60;3.40;;;9.50;99.90;;;;;;4915068;29;20186;-88
2022/10/23 06:08:25;;;;;;;4.90;4.03;;;9.50;99.90;;;;;;4917820;29;20182;-88
2022/10/23 06:10:51;;;;;;;5.20;4.73;;;9.60;99.90;;;;;;4919117;29;20180;-88
2022/10/23 06:13:17;;;;;;;4.50;4.20;;;9.60;99.90;;;;;;4918584;29;20548;-88
2022/10/23 06:15:43;;;;;;;4.30;3.90;;;9.60;99.90;;;;;;4919733;29;20181;-88
2022/10/23 06:18:09;;;;;;;5.10;4.10;;;9.70;99.90;;;;;;4918517;29;20249;-88
2022/10/23 06:20:36;;;;;;;4.47;4.10;;;9.70;99.90;;;;;;4918354;29;20227;-88
2022/10/23 06:23:02;;;;;;;5.03;4.20;;;9.80;99.90;;;;;;4918842;29;20228;-88
2022/10/23 06:25:28;;;;;;;6.97;4.40;;;9.80;99.90;;;;;;4919164;29;20276;-88
2022/10/23 06:27:57;;;;;;;4.43;4.13;;;10.00;99.90;;;;;;4920776;29;20648;-88
2022/10/23 06:30:23;;;;;;;4.33;4.03;;;9.80;99.90;;;;;;4933389;29;20214;-88
2022/10/23 06:32:49;;;;;;;4.50;4.20;;;10.00;99.90;;;;;;4936784;29;20665;-88
2022/10/23 06:35:14;;;;;;;3.87;3.67;;;10.00;99.90;;;;;;4923808;29;20189;-88
2022/10/23 06:37:40;;;;;;;5.63;3.53;;;10.10;99.90;;;;;;4922541;29;20596;-88
2022/10/23 06:40:07;;;;;;;4.40;4.10;;;10.10;99.90;;;;;;4919625;29;20221;-87
2022/10/23 06:42:33;;;;;;;5.07;4.67;;;10.20;99.90;;;;;;4920015;29;20169;-86
2022/10/23 06:44:59;;;;;;;5.03;4.60;;;10.30;99.90;;;;;;4921045;29;20188;-87
2022/10/23 06:47:25;;;;;;;4.40;4.10;;;10.40;99.90;;;;;;4919588;29;20192;-88
2022/10/23 06:49:50;;;;;;;4.13;3.83;;;10.50;99.90;;;;;;4920807;29;20205;-88
2022/10/23 06:52:17;;;;;;;4.20;3.90;;;10.60;99.90;;;;;;4922688;29;20184;-88
2022/10/23 06:54:44;;;;;;;3.60;3.40;;;10.50;99.90;;;;;;4942642;29;20205;-88
2022/10/23 06:57:10;;;;;;;3.67;3.47;;;10.50;99.90;;;;;;4947152;29;20645;-88
2022/10/23 06:59:35;;;;;;;3.77;3.47;;;10.50;99.90;;;;;;4952066;29;20234;-88
2022/10/23 07:02:02;;;;;;;3.73;3.50;;;10.60;99.90;;;;;;4938895;29;20191;-90
2022/10/23 07:04:28;;;;;;;4.40;4.00;;;10.50;99.90;;;;;;4923049;29;20196;-89
2022/10/23 07:06:55;;;;;;;4.20;3.90;;;10.50;99.90;;;;;;4920020;29;20195;-87
2022/10/23 07:09:22;;;;;;;4.10;3.80;;;10.50;99.90;;;;;;4917667;29;20183;-85
2022/10/23 07:11:48;;;;;;;4.10;3.80;;;10.50;99.90;;;;;;4923680;29;20180;-87
2022/10/23 07:14:15;;;;;;;4.00;3.70;;;10.60;99.90;;;;;;4932589;29;20253;-86
2022/10/23 07:16:42;;;;;;;3.83;3.60;;;10.70;99.90;;;;;;4936736;29;20202;-86
2022/10/23 07:19:08;;;;;;;3.90;3.70;;;10.80;99.90;;;;;;4922500;29;20242;-87
2022/10/23 07:21:34;;;;;;;3.67;3.47;;;10.70;99.90;;;;;;4919655;29;20187;-87
2022/10/23 07:24:01;;;;;;;3.80;3.60;;;10.70;99.90;;;;;;4919334;29;20188;-87
2022/10/23 07:26:27;;;;;;;3.63;3.43;;;10.70;99.90;;;;;;4923330;29;20757;-87
2022/10/23 07:28:56;;;;;;;3.43;3.23;;;10.80;99.90;;;;;;4921069;29;20190;-87
2022/10/23 07:31:23;;;;;;;3.73;3.53;;;10.80;99.90;;;;;;4920311;29;20178;-87
2022/10/23 07:33:49;;;;;;;4.00;3.70;;;10.90;99.90;;;;;;4923650;29;20186;-86
2022/10/23 07:36:16;;;;;;;3.73;3.53;;;11.00;99.90;;;;;;4921168;29;20191;-86
2022/10/23 07:38:41;;;;;;;3.70;3.50;;;11.20;99.90;;;;;;4922796;29;20545;-86
2022/10/23 07:41:07;;;;;;;3.50;3.30;;;11.20;99.90;;;;;;4922738;29;20183;-86
2022/10/23 07:43:34;;;;;;;3.40;3.30;;;11.20;99.90;;;;;;4920555;29;20271;-86
2022/10/23 07:46:00;;;;;;;3.67;3.47;;;11.30;99.90;;;;;;4919879;29;20600;-86
2022/10/23 07:48:26;;;;;;;4.50;4.20;;;11.40;99.90;;;;;;4921872;29;20176;-86
2022/10/23 07:50:56;;;;;;;4.47;4.17;;;11.40;99.90;;;;;;4921411;29;20188;-88
2022/10/23 07:53:24;;;;;;;4.97;4.57;;;11.40;99.90;;;;;;4923920;29;20207;-87
2022/10/23 07:56:00;;;;;;;4.27;3.97;;;11.50;99.90;;;;;;4920668;29;20191;-86
2022/10/23 07:58:28;;;;;;;6.20;4.80;;;11.60;99.90;;;;;;4919817;29;20165;-87
2022/10/23 08:01:00;;;;;;;4.80;4.40;;;11.50;99.90;;;;;;4918496;29;20218;-86
2022/10/23 08:03:30;;;;;;;5.03;4.63;;;11.50;99.90;;;;;;4919797;29;20173;-86
2022/10/23 08:05:58;;;;;;;5.50;4.50;;;11.60;99.90;;;;;;4917928;29;20761;-86
2022/10/23 08:08:25;;;;;;;4.77;4.40;;;11.70;99.90;;;;;;4917891;29;20185;-88
2022/10/23 08:10:52;;;;;;;4.50;4.20;;;11.80;99.90;;;;;;4918728;29;20235;-87
2022/10/23 08:13:21;;;;;;;4.77;4.37;;;11.90;99.90;;;;;;4918345;29;20177;-87
2022/10/23 08:15:49;;;;;;;4.23;3.93;;;11.90;99.90;;;;;;4920842;29;20176;-89
2022/10/23 08:18:15;;;;;;;4.67;4.27;;;11.80;99.90;;;;;;4927511;29;20276;-88
2022/10/23 08:20:42;;;;;;;4.47;4.17;;;11.80;99.90;;;;;;4939180;29;20271;-88
2022/10/23 08:23:09;;;;;;;4.80;4.40;;;11.80;99.90;;;;;;4939202;29;20159;-87
2022/10/23 08:25:34;;;;;;;5.00;4.60;;;11.80;99.90;;;;;;4910281;29;20808;-88
2022/10/23 08:28:00;;;;;;;4.70;4.40;;;11.80;99.90;;;;;;4905362;29;20183;-89
2022/10/23 08:30:27;;;;;;;4.50;4.20;;;11.90;99.90;;;;;;4922983;29;20180;-87
2022/10/23 08:32:53;;;;;;;4.57;4.27;;;11.90;99.90;;;;;;4903636;29;20180;-87
2022/10/23 08:35:19;;;;;;;4.97;4.67;;;12.00;99.90;;;;;;4910932;29;20184;-88
2022/10/23 08:37:44;;;;;;;5.20;4.90;;;12.00;99.90;;;;;;4951631;29;20183;-86
2022/10/23 08:40:21;;;;;;;5.50;5.10;;;12.00;99.90;;;;;;4954899;29;20208;-87
2022/10/23 08:42:56;;;;;;;5.60;5.20;;;12.00;99.90;;;;;;4942199;29;20171;-87
2022/10/23 08:45:34;;;;;;;5.30;4.90;;;12.00;99.90;;;;;;4940678;29;20172;-87
2022/10/23 08:48:12;;;;;;;6.03;5.53;;;12.00;99.90;;;;;;4941512;29;20171;-87
2022/10/23 08:50:48;;;;;;;6.03;5.53;;;12.00;99.90;;;;;;4924739;29;20220;-85
2022/10/23 08:53:17;;;;;;;5.90;5.40;;;12.10;99.90;;;;;;4928984;29;20702;-81
2022/10/23 08:55:49;;;;;;;6.53;5.93;;;12.10;99.90;;;;;;4941666;29;20259;-85
2022/10/23 08:58:22;;;;;;;7.00;6.50;;;12.10;99.90;;;;;;4937244;29;20633;-83
2022/10/23 09:03:23;;;;;;;7.03;6.43;;;12.10;99.90;;;;;;5803476;23;20238;-84
2022/10/23 09:06:14;;;;;;;6.20;5.70;;;12.10;99.90;;;;;;4915570;29;20200;-87
2022/10/23 09:08:58;;;;;;;7.03;6.43;;;12.10;99.90;;;;;;4917839;29;20216;-88
2022/10/23 09:12:02;;;;;;;7.03;6.43;;;12.10;99.90;;;;;;4935521;29;20175;-89
2022/10/23 09:14:54;;;;;;;6.43;5.93;;;12.10;99.90;;;;;;4935066;29;20268;-84
2022/10/23 09:17:48;;;;;;;7.17;6.53;;;12.00;99.90;;;;;;4936086;29;20175;-82
2022/10/23 09:20:32;;;;;;;7.40;6.70;;;12.00;99.90;;;;;;4932581;29;20266;-86
2022/10/23 09:23:11;;;;;;;6.90;6.30;;;12.00;99.90;;;;;;4938702;29;20165;-84
2022/10/23 09:25:40;;;;;;;6.57;6.07;;;12.10;99.90;;;;;;4937795;29;20522;-84
2022/10/23 09:28:55;;;;;;;7.23;6.53;;;12.10;99.90;;;;;;4924999;29;20180;-89
2022/10/23 09:31:21;;;;;;;8.17;6.60;;;12.20;99.90;;;;;;4929051;29;20179;-90
2022/10/23 09:34:01;;;;;;;7.57;6.87;;;12.20;99.90;;;;;;4917661;29;20214;-86
2022/10/23 09:36:28;;;;;;;7.20;6.50;;;12.20;99.90;;;;;;4932530;29;20206;-87
2022/10/23 09:39:01;;;;;;;6.47;5.97;;;12.30;99.90;;;;;;4947267;29;20191;-87
2022/10/23 09:41:42;;;;;;;7.33;6.70;;;12.30;99.90;;;;;;4948339;29;20166;-90
2022/10/23 09:44:22;;;;;;;6.67;6.17;;;12.40;99.90;;;;;;4930862;29;20166;-90
2022/10/23 09:46:53;;;;;;;6.80;6.30;;;12.50;99.90;;;;;;4932033;29;20246;-89
2022/10/23 09:49:23;;;;;;;6.70;6.10;;;12.50;99.90;;;;;;4934170;29;20182;-90
2022/10/23 09:52:31;;;;;;;7.03;6.43;;;12.60;99.90;;;;;;4949669;29;20156;-89
2022/10/23 09:55:15;;;;;;;6.73;6.20;;;12.60;99.90;;;;;;4893607;29;20241;-89
2022/10/23 09:57:46;;;;;;;6.60;6.10;;;12.70;99.90;;;;;;4897980;29;20208;-88
2022/10/23 10:00:21;;;;;;;6.30;5.80;;;12.70;99.90;;;;;;4885718;29;20264;-88
2022/10/23 10:03:05;;;;;;;7.83;6.33;;;12.80;99.90;;;;;;4902336;29;20178;-88
2022/10/23 10:05:44;;;;;;;6.57;6.07;;;12.80;99.90;;;;;;4900026;29;20291;-85
2022/10/23 10:08:19;;;;;;;5.93;5.47;;;12.90;99.90;;;;;;4878092;29;20210;-88
2022/10/23 10:10:54;;;;;;;6.60;6.00;;;13.10;99.90;;;;;;4893693;29;20255;-90
2022/10/23 10:13:32;;;;;;;6.20;5.70;;;13.10;99.90;;;;;;4894439;29;20187;-89
2022/10/23 10:16:22;;;;;;;6.33;5.83;;;13.10;99.90;;;;;;4912021;29;20725;-89
2022/10/23 10:19:28;;;;;;;6.37;5.77;;;13.10;99.90;;;;;;4906344;29;20165;-86
2022/10/23 10:22:21;;;;;;;6.83;6.30;;;13.20;99.90;;;;;;4888129;29;20189;-87
2022/10/23 10:25:01;;;;;;;5.83;5.33;;;13.20;99.90;;;;;;4882786;29;20199;-87
2022/10/23 10:27:45;;;;;;;7.53;6.00;;;13.40;99.90;;;;;;4930256;29;20251;-86
2022/10/23 10:30:24;;;;;;;6.00;5.60;;;13.50;99.90;;;;;;4959327;23;20238;-85
2022/10/23 10:33:36;;;;;;;5.73;5.30;;;13.60;99.90;;;;;;4948726;29;20187;-85
2022/10/23 10:36:17;;;;;;;5.80;5.40;;;13.80;99.90;;;;;;4836502;29;20189;-88
2022/10/23 10:39:45;;;;;;;7.10;5.53;;;14.00;99.90;;;;;;4838045;29;20188;-86
2022/10/23 10:42:57;;;;;;;6.30;5.80;;;14.20;99.90;;;;;;4844079;29;20223;-87
2022/10/23 10:45:38;;;;;;;6.30;5.80;;;14.40;99.90;;;;;;4853905;29;20198;-84
2022/10/23 10:48:32;;;;;;;6.60;6.00;;;14.60;99.90;;;;;;4821229;29;20234;-84
2022/10/23 10:51:33;;;;;;;5.73;5.33;;;14.70;99.90;;;;;;4852552;29;20191;-83
2022/10/23 10:54:26;;;;;;;5.83;5.33;;;14.80;99.90;;;;;;4851850;29;20190;-84
2022/10/23 10:56:55;;;;;;;5.60;5.10;;;15.00;99.90;;;;;;4842712;29;20199;-87
2022/10/23 10:59:30;;;;;;;5.83;5.30;;;15.10;99.90;;;;;;4850119;29;20776;-85
2022/10/23 11:02:12;;;;;;;5.33;4.93;;;15.20;99.90;;;;;;4941827;23;20245;-85
2022/10/23 11:04:59;;;;;;;5.50;5.00;;;15.30;99.90;;;;;;4971886;29;20177;-84
2022/10/23 11:07:33;;;;;;;4.63;4.33;;;15.40;99.90;;;;;;4957924;28;20187;-86
2022/10/23 11:10:17;;;;;;;4.87;4.47;;;15.40;99.90;;;;;;4985986;23;20563;-83
2022/10/23 11:12:46;;;;;;;4.37;4.07;;;15.40;99.90;;;;;;4971204;29;20193;-83
2022/10/23 11:15:20;;;;;;;3.90;3.60;;;15.50;99.90;;;;;;5014456;23;20192;-85
2022/10/23 11:18:23;;;;;;;5.03;4.53;;;15.50;99.90;;;;;;4920645;28;20205;-92
2022/10/23 11:21:26;;;;;;;4.87;4.57;;;15.60;99.90;;;;;;4957140;29;20313;-90
2022/10/23 11:24:11;;;;;;;5.63;4.80;;;15.60;99.90;;;;;;4940849;29;20247;-92
2022/10/23 11:27:35;;;;;;;4.00;3.80;;;15.70;99.90;;;;;;4950623;28;20188;-93
2022/10/23 11:30:26;;;;;;;4.30;3.90;;;15.70;99.90;;;;;;4934778;29;20169;-96
2022/10/23 11:33:31;;;;;;;3.60;3.40;;;15.80;99.90;;;;;;4920339;29;20184;-92
2022/10/23 11:35:57;;;;;;;4.00;3.70;;;15.90;99.90;;;;;;5109385;23;20222;-91
2022/10/23 11:38:30;;;;;;;4.00;3.80;;;16.00;99.90;;;;;;4980779;28;20264;-83
2022/10/23 11:41:03;;;;;;;3.70;3.50;;;16.10;99.90;;;;;;4979478;28;20263;-87
2022/10/23 11:43:49;;;;;;;4.23;3.93;;;16.10;99.90;;;;;;4978313;28;20191;-92
2022/10/23 11:46:26;;;;;;;4.10;3.80;;;16.20;99.90;;;;;;4980106;28;20164;-90
2022/10/23 11:48:54;;;;;;;3.73;3.50;;;16.30;99.90;;;;;;4977459;29;20175;-86
2022/10/23 11:51:39;;;;;;;4.23;3.93;;;16.40;99.90;;;;;;4973681;29;20175;-88
2022/10/23 11:54:09;;;;;;;3.10;3.00;;;16.30;99.90;;;;;;4978074;28;20178;-87
2022/10/23 11:56:36;;;;;;;3.73;3.53;;;16.30;99.90;;;;;;4962671;29;20181;-89
2022/10/23 11:59:30;;;;;;;3.53;3.33;;;16.30;99.90;;;;;;4981354;28;20238;-85
2022/10/23 12:02:00;;;;;;;3.60;3.40;;;16.20;99.90;;;;;;4957631;29;20164;-95
2022/10/23 12:04:44;;;;;;;3.63;3.43;;;16.20;99.90;;;;;;4964988;29;20182;-94
2022/10/23 12:09:54;;;;;;;3.57;3.27;;;16.30;99.90;;;;;;5293396;23;20245;-94
2022/10/23 12:12:34;;;;;;;3.53;3.33;;;16.40;99.90;;;;;;4974294;29;20166;-91
2022/10/23 12:15:13;;;;;;;3.13;2.97;;;16.40;99.90;;;;;;4949934;29;20537;-91
2022/10/23 12:17:43;;;;;;;5.10;3.27;;;16.40;99.90;;;;;;4970328;29;20179;-92
2022/10/23 12:20:11;;;;;;;3.30;3.07;;;16.40;99.90;;;;;;4966764;29;20658;-88
2022/10/23 12:22:59;;;;;;;2.93;2.80;;;16.40;99.90;;;;;;4962252;29;20171;-95
2022/10/23 12:25:58;;;;;;;3.87;3.67;;;16.40;99.90;;;;;;4946390;29;20191;-95
2022/10/23 12:28:55;;;;;;;1.97;1.90;;;16.50;99.90;;;;;;4959354;29;20632;-95
2022/10/23 12:31:42;;;;;;;1.70;1.70;;;16.50;99.90;;;;;;4941652;29;20179;-94
2022/10/23 12:34:37;;;;;;;2.00;1.90;;;16.50;99.90;;;;;;4957919;29;20175;-92
2022/10/23 12:37:40;;;;;;;2.07;1.97;;;16.50;99.90;;;;;;4960939;29;20167;-86
2022/10/23 12:40:09;;;;;;;2.10;2.00;;;16.50;99.90;;;;;;4943258;29;20207;-83
2022/10/23 12:42:37;;;;;;;1.90;1.80;;;16.60;99.90;;;;;;4961866;29;20179;-89
2022/10/23 12:45:37;;;;;;;4.33;4.00;;;16.70;99.90;;;;;;4945527;29;20199;-93
2022/10/23 12:48:03;;;;;;;9.73;8.73;;;16.70;99.90;;;;;;4962702;29;20159;-87
2022/10/23 12:50:31;;;;;;;3.17;2.97;;;16.70;99.90;;;;;;4958458;29;20183;-85
2022/10/23 12:53:02;;;;;;;6.50;5.33;;;16.70;99.90;;;;;;4940165;29;20354;-90
2022/10/23 12:55:50;;;;;;;3.30;3.00;;;16.60;99.90;;;;;;4957946;29;20172;-90
2022/10/23 12:58:26;;;;;;;3.70;3.50;;;16.50;99.90;;;;;;4959658;29;20686;-86
2022/10/23 13:00:55;;;;;;;2.40;2.30;;;16.40;99.90;;;;;;4956598;29;20198;-86
2022/10/23 13:03:23;;;;;;;1.80;1.70;;;16.30;99.90;;;;;;4939303;29;20183;-84
2022/10/23 13:05:51;;;;;;;1.80;1.70;;;16.20;99.90;;;;;;4962223;29;20579;-87
2022/10/23 13:08:20;;;;;;;1.60;1.60;;;16.20;99.90;;;;;;4964583;29;20179;-83
2022/10/23 13:10:47;;;;;;;1.70;1.60;;;16.10;99.90;;;;;;4944803;29;20172;-91
2022/10/23 13:13:19;;;;;;;1.90;1.80;;;16.10;99.90;;;;;;4966495;29;20183;-86
2022/10/23 13:15:45;;;;;;;2.10;1.90;;;16.10;99.90;;;;;;4977838;29;20151;-84
2022/10/23 13:18:13;;;;;;;3.10;2.93;;;16.10;99.90;;;;;;4973610;28;20175;-90
2022/10/23 13:20:59;;;;;;;3.20;3.00;;;16.10;99.90;;;;;;4962681;29;20219;-96
2022/10/23 13:23:33;;;;;;;3.30;3.10;;;16.10;99.90;;;;;;4959196;29;20195;-95